Time;durP1;ratioP1;P1;durP2;ratioP2;P2;SDS_P1;SDS_P2;PMS_P1;PMS_P2;Temp;Humidity;BMP_temperature;BMP_pressure;BME280_temperature;BME280_humidity;BME280_pressure;Samples;Min_cycle;Max_cycle;Signal;HPM_P1;HPM_P2
2022/10/19 00:00:25;;;;;;;20.83;10.82;;;;;;;6.43;100.00;102801.97;5053675;28;20040;-59
2022/10/19 00:02:50;;;;;;;19.10;10.10;;;;;;;6.42;100.00;102808.06;5053517;28;20057;-59
2022/10/19 00:05:15;;;;;;;17.23;10.45;;;;;;;6.04;100.00;102746.44;5053341;28;20041;-60
2022/10/19 00:07:41;;;;;;;16.98;9.65;;;;;;;6.41;100.00;102821.13;5053462;28;20040;-59
2022/10/19 00:10:06;;;;;;;17.25;10.68;;;;;;;6.29;100.00;102797.38;5053759;28;20021;-58
2022/10/19 00:12:32;;;;;;;20.98;10.85;;;;;;;6.36;100.00;102815.84;5052787;28;20037;-60
2022/10/19 00:14:57;;;;;;;15.65;9.90;;;;;;;5.93;100.00;102755.81;5053572;28;20063;-61
2022/10/19 00:17:22;;;;;;;18.65;10.32;;;;;;;5.84;100.00;102738.22;5053474;28;20510;-60
2022/10/19 00:19:47;;;;;;;15.35;10.02;;;;;;;6.26;100.00;102829.59;5053446;28;20037;-60
2022/10/19 00:22:13;;;;;;;16.83;10.30;;;;;;;6.23;100.00;102819.97;5053311;28;20033;-59
2022/10/19 00:24:38;;;;;;;17.75;10.90;;;;;;;6.22;100.00;102818.19;5053428;28;20098;-59
2022/10/19 00:27:05;;;;;;;20.08;10.43;;;;;;;6.20;100.00;102806.84;5052080;28;20274;-60
2022/10/19 00:29:30;;;;;;;19.25;11.50;;;;;;;6.11;100.00;102803.19;5053383;28;20598;-59
2022/10/19 00:31:56;;;;;;;22.00;11.63;;;;;;;6.11;100.00;102801.47;5053174;28;20249;-59
2022/10/19 00:34:21;;;;;;;23.38;11.48;;;;;;;6.12;100.00;102811.06;5053139;28;20071;-59
2022/10/19 00:36:46;;;;;;;17.17;11.27;;;;;;;6.16;100.00;102814.59;5048393;28;20079;-59
2022/10/19 00:39:15;;;;;;;21.85;12.02;;;;;;;6.12;100.00;102818.91;5047716;28;20086;-61
2022/10/19 00:41:41;;;;;;;22.90;11.32;;;;;;;5.68;100.00;102744.03;5050555;28;20044;-58
2022/10/19 00:44:12;;;;;;;21.35;11.40;;;;;;;6.07;100.00;102828.41;5053375;28;20032;-59
2022/10/19 00:46:40;;;;;;;17.70;11.27;;;;;;;5.77;100.00;102772.06;5052792;28;20094;-58
2022/10/19 00:49:11;;;;;;;16.98;11.18;;;;;;;5.93;100.00;102803.75;5053028;28;20304;-59
2022/10/19 00:51:40;;;;;;;17.63;10.93;;;;;;;5.59;100.00;102752.59;5052695;28;20039;-59
2022/10/19 00:54:05;;;;;;;18.45;11.43;;;;;;;5.93;100.00;102810.69;5051520;28;20458;-59
2022/10/19 00:56:32;;;;;;;20.48;12.70;;;;;;;5.89;100.00;102817.63;5052892;28;20037;-60
2022/10/19 00:58:57;;;;;;;17.17;12.75;;;;;;;5.92;100.00;102820.31;5052637;28;20121;-59
2022/10/19 01:01:24;;;;;;;26.67;12.45;;;;;;;5.92;100.00;102832.50;5039957;28;20069;-58
2022/10/19 01:03:49;;;;;;;18.15;12.15;;;;;;;5.82;100.00;102796.53;5068002;28;20056;-59
2022/10/19 01:06:16;;;;;;;18.67;12.13;;;;;;;5.15;100.00;102689.94;5048080;28;20053;-60
2022/10/19 01:08:41;;;;;;;24.95;12.63;;;;;;;5.42;100.00;102746.19;5043160;28;20033;-58
2022/10/19 01:11:06;;;;;;;20.13;12.60;;;;;;;5.81;100.00;102808.72;5052466;28;20041;-59
2022/10/19 01:13:35;;;;;;;23.38;13.43;;;;;;;5.80;100.00;102806.09;5052528;28;20032;-59
2022/10/19 01:16:09;;;;;;;20.52;13.20;;;;;;;5.05;100.00;102678.41;5052290;28;20040;-57
2022/10/19 01:18:41;;;;;;;20.63;12.85;;;;;;;5.77;100.00;102806.03;5047865;28;20116;-59
2022/10/19 01:21:12;;;;;;;20.00;13.40;;;;;;;5.75;100.00;102808.59;5046118;28;20507;-59
2022/10/19 01:23:43;;;;;;;;;;;;;;;5.73;100.00;102802.47;5052699;28;20029;-59
2022/10/19 01:26:42;;;;;;;20.25;12.70;;;;;;;5.69;100.00;102800.69;5052229;28;19909;-58
2022/10/19 01:29:10;;;;;;;22.65;12.68;;;;;;;5.66;100.00;102805.84;5050787;28;20052;-59
2022/10/19 01:31:49;;;;;;;21.77;13.85;;;;;;;5.23;100.00;102738.81;5049065;28;20361;-59
2022/10/19 01:34:34;;;;;;;25.55;13.75;;;;;;;5.61;100.00;102803.13;5050885;28;20056;-58
2022/10/19 01:36:59;;;;;;;27.45;12.50;;;;;;;5.60;100.00;102801.34;5047627;28;20037;-60
2022/10/19 01:39:42;;;;;;;21.35;13.05;;;;;;;5.56;100.00;102786.50;5048250;28;20087;-56
2022/10/19 01:42:14;;;;;;;20.85;13.63;;;;;;;5.55;100.00;102784.72;5052009;28;20388;-59
2022/10/19 01:44:46;;;;;;;19.42;13.70;;;;;;;5.54;100.00;102776.88;5050767;28;20476;-58
2022/10/19 01:47:19;;;;;;;22.77;14.30;;;;;;;5.53;100.00;102773.38;5047300;28;20491;-59
2022/10/19 01:49:54;;;;;;;19.67;12.85;;;;;;;5.25;100.00;102738.88;5046743;28;20124;-60
2022/10/19 01:52:20;;;;;;;20.10;12.55;;;;;;;5.47;100.00;102783.69;5039493;28;20032;-60
2022/10/19 01:54:48;;;;;;;21.13;13.52;;;;;;;5.46;100.00;102791.50;5050764;28;20095;-58
2022/10/19 01:57:20;;;;;;;20.50;13.30;;;;;;;5.30;100.00;102766.81;5051810;28;20087;-60
2022/10/19 01:59:46;;;;;;;25.15;13.05;;;;;;;5.29;100.00;102772.00;5050397;28;20037;-58
2022/10/19 02:02:13;;;;;;;19.02;13.55;;;;;;;5.27;100.00;102778.94;5050646;28;20067;-60
2022/10/19 02:04:39;;;;;;;19.33;13.50;;;;;;;4.97;100.00;102719.16;5050659;28;20033;-60
2022/10/19 02:07:06;;;;;;;23.25;12.02;;;;;;;4.95;100.00;102720.84;5047277;28;20033;-59
2022/10/19 02:09:31;;;;;;;20.20;14.02;;;;;;;5.38;100.00;102787.84;5044458;28;20465;-59
2022/10/19 02:12:00;;;;;;;19.58;13.45;;;;;;;5.05;100.00;102736.72;5036030;28;20082;-58
2022/10/19 02:14:34;;;;;;;22.10;13.38;;;;;;;5.38;100.00;102788.75;5047417;28;20033;-60
2022/10/19 02:17:13;;;;;;;24.85;12.73;;;;;;;5.03;100.00;102711.44;5053470;28;20160;-59
2022/10/19 02:19:38;;;;;;;15.80;12.52;;;;;;;5.40;100.00;102783.56;5051630;28;20044;-59
2022/10/19 02:22:03;;;;;;;18.70;13.05;;;;;;;5.37;100.00;102770.44;5051713;28;20033;-60
2022/10/19 02:24:29;;;;;;;18.88;12.30;;;;;;;4.95;100.00;102694.75;5051498;28;20057;-57
2022/10/19 02:26:55;;;;;;;18.60;12.88;;;;;;;4.90;100.00;102689.44;5051842;28;20097;-59
2022/10/19 02:29:21;;;;;;;18.55;13.73;;;;;;;4.96;100.00;102691.31;5050641;28;20049;-59
2022/10/19 02:31:46;;;;;;;20.73;13.00;;;;;;;4.93;100.00;102689.50;5050114;28;20385;-61
2022/10/19 02:34:12;;;;;;;18.17;12.82;;;;;;;4.94;100.00;102685.16;5050040;28;20106;-61
2022/10/19 02:36:38;;;;;;;17.98;12.90;;;;;;;5.33;100.00;102761.66;5036478;28;20403;-60
2022/10/19 02:39:03;;;;;;;19.75;13.10;;;;;;;5.29;100.00;102745.91;5055620;28;20048;-61
2022/10/19 02:41:50;;;;;;;25.65;14.07;;;;;;;5.33;100.00;102743.38;5054672;28;20488;-60
2022/10/19 02:44:25;;;;;;;23.60;15.00;;;;;;;5.02;100.00;102696.66;5055639;28;20028;-60
2022/10/19 02:47:00;;;;;;;23.92;15.02;;;;;;;5.31;100.00;102750.28;5054338;28;20163;-58
2022/10/19 02:49:26;;;;;;;23.20;16.20;;;;;;;5.33;100.00;102746.00;5054124;28;20090;-59
2022/10/19 02:52:00;;;;;;;21.63;14.85;;;;;;;5.35;100.00;102743.41;5054273;28;20037;-58
2022/10/19 02:54:26;;;;;;;21.67;15.20;;;;;;;5.31;100.00;102731.16;5054460;28;20431;-59
2022/10/19 02:56:51;;;;;;;23.98;15.63;;;;;;;5.35;100.00;102751.22;5055561;28;20091;-58
2022/10/19 02:59:17;;;;;;;22.23;15.45;;;;;;;4.93;100.00;102668.63;5055234;28;20072;-60
2022/10/19 03:01:42;;;;;;;27.98;16.73;;;;;;;5.26;100.00;102730.16;5055304;28;20029;-60
2022/10/19 03:04:07;;;;;;;25.92;16.27;;;;;;;5.29;100.00;102751.13;5048552;28;20034;-60
2022/10/19 03:06:33;;;;;;;24.15;15.40;;;;;;;5.27;100.00;102756.31;5054580;28;20032;-60
2022/10/19 03:08:58;;;;;;;29.75;17.75;;;;;;;4.88;100.00;102679.81;5050246;28;20125;-60
2022/10/19 03:11:23;;;;;;;22.13;15.57;;;;;;;5.00;100.00;102706.16;5054856;28;20503;-58
2022/10/19 03:13:48;;;;;;;24.88;16.05;;;;;;;4.80;100.00;102682.28;5050539;28;20064;-59
2022/10/19 03:16:14;;;;;;;28.85;17.63;;;;;;;4.85;100.00;102695.41;5051572;28;20033;-59
2022/10/19 03:18:39;;;;;;;28.83;17.50;;;;;;;5.14;100.00;102738.63;5054507;28;20035;-60
2022/10/19 03:21:07;;;;;;;27.50;17.55;;;;;;;4.81;100.00;102685.78;5054454;28;20471;-59
2022/10/19 03:23:33;;;;;;;28.95;17.10;;;;;;;5.03;100.00;102733.22;5054369;28;20116;-59
2022/10/19 03:25:58;;;;;;;32.42;18.48;;;;;;;5.14;100.00;102732.56;5049941;28;20124;-58
2022/10/19 03:28:23;;;;;;;28.20;19.83;;;;;;;5.16;100.00;102730.84;5052176;28;20055;-60
2022/10/19 03:30:49;;;;;;;28.98;19.50;;;;;;;5.17;100.00;102743.06;5053096;28;20086;-59
2022/10/19 03:33:14;;;;;;;26.85;18.02;;;;;;;5.20;100.00;102730.94;5049583;28;20045;-59
2022/10/19 03:35:39;;;;;;;30.08;18.80;;;;;;;4.83;100.00;102664.09;5045478;28;20037;-61
2022/10/19 03:38:04;;;;;;;31.42;19.30;;;;;;;5.08;100.00;102710.69;5054484;28;20060;-61
2022/10/19 03:40:30;;;;;;;36.78;21.10;;;;;;;4.90;100.00;102667.72;5052959;28;20491;-58
2022/10/19 03:42:55;;;;;;;40.53;23.15;;;;;;;5.29;100.00;102732.84;5054231;28;20040;-59
2022/10/19 03:45:20;;;;;;;35.35;21.35;;;;;;;5.01;100.00;102666.19;5054153;28;20048;-60
2022/10/19 03:47:49;;;;;;;37.75;21.65;;;;;;;5.32;100.00;102730.28;5052810;28;20110;-59
2022/10/19 03:50:15;;;;;;;35.60;22.00;;;;;;;5.16;100.00;102699.53;5052748;28;20048;-60
2022/10/19 03:52:41;;;;;;;38.35;22.83;;;;;;;5.30;100.00;102726.78;5052903;28;20028;-59
2022/10/19 03:55:07;;;;;;;35.60;21.83;;;;;;;4.89;100.00;102655.50;5053918;28;20025;-58
2022/10/19 03:57:33;;;;;;;32.83;21.30;;;;;;;5.15;100.00;102714.31;5052635;28;20547;-58
2022/10/19 03:59:58;;;;;;;31.08;20.35;;;;;;;5.20;100.00;102714.38;5053641;28;20029;-61
2022/10/19 04:02:23;;;;;;;37.15;20.55;;;;;;;5.01;100.00;102695.78;5053397;28;20087;-58
2022/10/19 04:04:49;;;;;;;36.28;21.52;;;;;;;4.94;100.00;102672.13;5049213;28;20033;-60
2022/10/19 04:07:14;;;;;;;32.90;20.73;;;;;;;4.88;100.00;102665.06;5042008;28;20029;-58
2022/10/19 04:09:39;;;;;;;32.30;20.42;;;;;;;4.89;100.00;102665.94;5049354;28;20083;-61
2022/10/19 04:12:04;;;;;;;34.08;19.95;;;;;;;5.24;100.00;102726.66;5049310;28;20461;-61
2022/10/19 04:14:30;;;;;;;28.13;20.08;;;;;;;4.82;100.00;102666.66;5053651;28;20029;-60
2022/10/19 04:16:55;;;;;;;34.92;20.75;;;;;;;5.19;100.00;102723.09;5053516;28;20475;-59
2022/10/19 04:19:20;;;;;;;30.48;19.30;;;;;;;5.17;100.00;102714.34;5053435;28;20538;-59
2022/10/19 04:21:47;;;;;;;31.30;20.35;;;;;;;4.75;100.00;102644.81;5053735;28;20032;-60
2022/10/19 04:24:14;;;;;;;32.88;20.00;;;;;;;4.82;100.00;102662.31;5053308;28;20029;-59
2022/10/19 04:26:44;;;;;;;34.00;21.02;;;;;;;4.71;100.00;102644.69;5053491;28;20116;-59
2022/10/19 04:29:10;;;;;;;30.25;19.20;;;;;;;5.03;100.00;102704.50;5052889;28;20550;-57
2022/10/19 04:31:36;;;;;;;29.80;18.65;;;;;;;4.72;100.00;102643.84;5048631;28;20037;-59
2022/10/19 04:34:02;;;;;;;32.13;20.38;;;;;;;5.03;100.00;102707.13;5048674;28;20037;-58
2022/10/19 04:36:27;;;;;;;31.60;19.70;;;;;;;5.05;100.00;102708.00;5053235;28;20543;-59
2022/10/19 04:38:52;;;;;;;29.52;18.70;;;;;;;4.90;100.00;102688.59;5053981;28;20040;-58
2022/10/19 04:41:19;;;;;;;31.30;19.15;;;;;;;4.65;100.00;102650.66;5051843;28;20061;-58
2022/10/19 04:43:45;;;;;;;28.50;17.98;;;;;;;5.00;100.00;102730.53;5053005;28;20037;-60
2022/10/19 04:46:13;;;;;;;29.48;17.73;;;;;;;4.67;100.00;102661.16;5052920;28;20033;-59
2022/10/19 04:48:40;;;;;;;27.27;17.63;;;;;;;4.97;100.00;102726.97;5032049;28;20124;-55
2022/10/19 04:51:05;;;;;;;27.52;18.65;;;;;;;4.59;100.00;102655.75;5040404;28;20032;-58
2022/10/19 04:53:31;;;;;;;25.98;17.45;;;;;;;4.88;100.00;102713.75;5048334;28;20082;-60
2022/10/19 04:55:57;;;;;;;26.75;17.13;;;;;;;4.92;100.00;102703.41;5042671;28;20033;-58
2022/10/19 04:58:22;;;;;;;23.13;16.27;;;;;;;4.63;100.00;102654.09;5050065;28;20384;-59
2022/10/19 05:00:48;;;;;;;27.90;16.88;;;;;;;5.05;100.00;102733.22;5051402;28;20029;-59
2022/10/19 05:03:13;;;;;;;22.63;15.43;;;;;;;4.72;100.00;102656.91;5052538;28;20116;-57
2022/10/19 05:05:38;;;;;;;30.38;16.52;;;;;;;4.85;100.00;102677.16;5048037;28;20080;-56
2022/10/19 05:08:04;;;;;;;26.67;16.55;;;;;;;5.17;100.00;102716.97;5048149;28;20464;-57
2022/10/19 05:10:29;;;;;;;25.48;15.98;;;;;;;5.24;100.00;102727.53;5052690;28;20064;-61
2022/10/19 05:12:55;;;;;;;23.65;16.67;;;;;;;4.93;100.00;102660.78;5052522;28;20102;-59
2022/10/19 05:15:20;;;;;;;29.00;17.58;;;;;;;5.01;100.00;102666.19;5051242;28;20049;-58
2022/10/19 05:17:45;;;;;;;24.23;16.52;;;;;;;5.21;100.00;102693.53;5047781;28;20480;-59
2022/10/19 05:20:11;;;;;;;28.02;16.13;;;;;;;5.39;100.00;102726.94;5048674;28;20045;-58
2022/10/19 05:22:39;;;;;;;30.08;15.98;;;;;;;5.08;100.00;102661.09;5052476;28;20056;-60
2022/10/19 05:25:05;;;;;;;31.80;16.98;;;;;;;5.41;100.00;102706.97;5052150;28;20040;-60
2022/10/19 05:27:31;;;;;;;25.48;15.65;;;;;;;5.45;100.00;102719.25;5052256;28;20480;-59
2022/10/19 05:29:56;;;;;;;27.30;17.00;;;;;;;5.42;100.00;102729.63;5052026;28;20110;-59
2022/10/19 05:32:21;;;;;;;28.48;15.88;;;;;;;5.41;100.00;102720.91;5050946;28;20128;-58
2022/10/19 05:34:47;;;;;;;27.45;15.32;;;;;;;5.30;100.00;102706.78;5052303;28;20036;-56
2022/10/19 05:37:12;;;;;;;25.48;15.95;;;;;;;5.37;100.00;102721.69;5050774;28;20502;-59
2022/10/19 05:39:37;;;;;;;22.88;15.35;;;;;;;4.93;100.00;102652.97;5051987;28;20110;-61
2022/10/19 05:42:03;;;;;;;34.03;16.38;;;;;;;5.28;100.00;102718.94;5052009;28;20052;-61
2022/10/19 05:44:28;;;;;;;25.20;15.95;;;;;;;5.25;100.00;102707.53;5051870;28;20365;-58
2022/10/19 05:46:53;;;;;;;25.63;14.93;;;;;;;4.81;100.00;102647.53;5052126;28;20392;-59
2022/10/19 05:49:20;;;;;;;24.38;15.02;;;;;;;5.18;100.00;102726.53;5052118;28;20029;-59
2022/10/19 05:51:46;;;;;;;23.33;15.43;;;;;;;4.85;100.00;102661.50;5051922;28;20044;-59
2022/10/19 05:54:11;;;;;;;27.95;14.60;;;;;;;5.11;100.00;102720.31;5051913;28;20037;-59
2022/10/19 05:56:38;;;;;;;29.27;16.17;;;;;;;4.74;100.00;102639.53;5050532;28;20087;-58
2022/10/19 05:59:05;;;;;;;29.08;16.27;;;;;;;4.69;100.00;102626.41;5051583;28;20526;-61
2022/10/19 06:01:31;;;;;;;30.15;15.45;;;;;;;4.72;100.00;102630.81;5052086;28;20128;-60
2022/10/19 06:03:58;;;;;;;28.27;17.23;;;;;;;4.69;100.00;102630.75;5051880;28;20079;-58
2022/10/19 06:06:24;;;;;;;26.42;16.05;;;;;;;5.05;100.00;102699.31;5051621;28;20208;-58
2022/10/19 06:08:50;;;;;;;26.42;16.00;;;;;;;5.00;100.00;102683.56;5051752;28;20021;-60
2022/10/19 06:11:18;;;;;;;26.35;16.35;;;;;;;5.08;100.00;102707.19;5052774;28;20096;-59
2022/10/19 06:13:44;;;;;;;26.38;15.73;;;;;;;5.02;100.00;102692.28;5055696;28;20427;-55
2022/10/19 06:16:12;;;;;;;29.45;15.75;;;;;;;5.02;100.00;102694.06;5056045;28;20116;-61
2022/10/19 06:18:38;;;;;;;26.40;16.80;;;;;;;5.00;100.00;102698.34;5054575;28;20400;-59
2022/10/19 06:21:07;;;;;;;23.15;16.40;;;;;;;4.98;100.00;102695.72;5054780;28;20032;-59
2022/10/19 06:23:33;;;;;;;27.40;16.42;;;;;;;4.87;100.00;102668.53;5055547;28;20095;-60
2022/10/19 06:26:05;;;;;;;25.42;16.52;;;;;;;4.97;100.00;102680.00;5055473;28;20029;-59
2022/10/19 06:28:30;;;;;;;26.30;16.63;;;;;;;5.14;100.00;102681.22;5055677;28;20049;-59
2022/10/19 06:30:59;;;;;;;29.85;17.23;;;;;;;4.83;100.00;102616.25;5055503;28;20471;-58
2022/10/19 06:33:25;;;;;;;24.65;16.63;;;;;;;5.24;100.00;102684.88;5050970;28;20067;-59
2022/10/19 06:35:50;;;;;;;32.22;17.88;;;;;;;4.94;100.00;102633.84;5047936;28;20036;-60
2022/10/19 06:38:16;;;;;;;29.90;16.30;;;;;;;5.10;100.00;102648.97;5055370;28;20400;-56
2022/10/19 06:40:41;;;;;;;28.63;16.92;;;;;;;5.44;100.00;102693.97;5055276;28;20140;-58
2022/10/19 06:43:06;;;;;;;24.77;16.05;;;;;;;5.42;100.00;102690.44;5055496;28;20113;-59
2022/10/19 06:45:32;;;;;;;27.25;17.30;;;;;;;5.22;100.00;102644.81;5055197;28;20036;-59
2022/10/19 06:47:58;;;;;;;28.02;15.88;;;;;;;5.13;100.00;102623.78;5053986;28;20438;-60
2022/10/19 06:50:24;;;;;;;29.45;17.20;;;;;;;5.56;100.00;102702.91;5054970;28;20044;-59
2022/10/19 06:52:49;;;;;;;26.23;16.25;;;;;;;5.58;100.00;102709.03;5055167;28;20029;-56
2022/10/19 06:55:16;;;;;;;30.63;18.52;;;;;;;5.64;100.00;102709.13;5053680;28;20033;-60
2022/10/19 06:57:42;;;;;;;27.17;15.90;;;;;;;5.40;100.00;102658.22;5045257;28;20037;-60
2022/10/19 07:00:08;;;;;;;36.85;17.25;;;;;;;5.77;100.00;102699.78;5048330;28;20043;-59
2022/10/19 07:02:33;;;;;;;28.10;16.60;;;;;;;5.84;100.00;102693.78;5053053;28;20037;-59
2022/10/19 07:04:58;;;;;;;25.73;15.55;;;;;;;5.80;100.00;102678.94;5046760;28;20041;-59
2022/10/19 07:07:24;;;;;;;28.50;16.48;;;;;;;5.95;100.00;102688.78;5047331;28;20052;-59
2022/10/19 07:09:49;;;;;;;26.17;16.13;;;;;;;6.05;100.00;102681.09;5048453;28;20178;-59
2022/10/19 07:12:15;;;;;;;20.67;13.80;;;;;;;6.14;100.00;102693.44;5046923;28;20044;-62
2022/10/19 07:14:40;;;;;;;27.98;14.77;;;;;;;5.83;100.00;102613.66;5053135;28;20029;-61
2022/10/19 07:17:06;;;;;;;21.35;13.55;;;;;;;5.88;100.00;102605.91;5054587;28;20491;-61
2022/10/19 07:19:32;;;;;;;32.28;14.07;;;;;;;6.46;100.00;102691.28;5057043;28;20439;-61
2022/10/19 07:21:57;;;;;;;21.77;12.77;;;;;;;6.49;100.00;102673.00;5069622;28;20115;-62
2022/10/19 07:24:23;;;;;;;23.88;13.65;;;;;;;6.60;100.00;102682.75;5051104;28;20132;-60
2022/10/19 07:26:48;;;;;;;25.33;13.20;;;;;;;6.68;100.00;102694.19;5052888;28;20083;-60
2022/10/19 07:29:13;;;;;;;22.38;13.05;;;;;;;6.43;100.00;102647.66;5053911;28;20456;-62
2022/10/19 07:31:40;;;;;;;27.13;13.60;;;;;;;6.83;100.00;102703.13;5054279;28;20033;-60
2022/10/19 07:34:05;;;;;;;19.85;13.45;;;;;;;6.84;100.00;102683.91;5050567;28;20037;-59
2022/10/19 07:36:32;;;;;;;21.30;13.68;;;;;;;6.93;100.00;102691.88;5053232;28;20052;-60
2022/10/19 07:39:00;;;;;;;19.75;13.60;;;;;;;7.07;100.00;102722.59;5051342;28;20032;-60
2022/10/19 07:41:25;;;;;;;22.60;13.65;;;;;;;7.07;100.00;102692.91;5044367;28;20032;-59
2022/10/19 07:43:52;;;;;;;19.50;13.18;;;;;;;6.51;100.00;102582.38;5054241;28;20033;-60
2022/10/19 07:46:20;;;;;;;20.25;12.65;;;;;;;6.87;100.00;102629.00;5039628;28;20025;-59
2022/10/19 07:48:45;;;;;;;21.15;12.65;;;;;;;6.94;100.00;102636.94;5051951;28;20037;-61
2022/10/19 07:51:12;;;;;;;24.88;12.43;;;;;;;7.02;100.00;102637.03;5052588;28;20048;-60
2022/10/19 07:53:38;;;;;;;20.40;13.23;;;;;;;7.46;100.00;102701.22;5054227;28;20108;-62
2022/10/19 07:56:08;;;;;;;20.90;12.18;;;;;;;7.14;100.00;102621.44;5053106;28;20509;-61
2022/10/19 07:58:35;;;;;;;21.42;12.75;;;;;;;7.31;100.00;102646.06;5053021;28;20033;-61
2022/10/19 08:01:07;;;;;;;20.83;12.57;;;;;;;7.59;100.00;102684.72;5051105;28;20041;-60
2022/10/19 08:03:33;;;;;;;17.10;11.73;;;;;;;7.70;100.00;102687.47;5053240;28;20036;-62
2022/10/19 08:06:00;;;;;;;22.75;11.80;;;;;;;7.42;100.00;102626.06;5053120;28;20032;-61
2022/10/19 08:08:25;;;;;;;19.48;11.57;;;;;;;7.68;100.00;102661.22;5068575;28;20044;-62
2022/10/19 08:10:50;;;;;;;19.10;10.82;;;;;;;7.58;100.00;102619.22;5052883;28;20124;-61
2022/10/19 08:13:15;;;;;;;21.60;10.32;;;;;;;8.05;100.00;102679.88;5052948;28;20047;-61
2022/10/19 08:15:41;;;;;;;19.13;10.25;;;;;;;7.80;100.00;102615.88;5052953;28;20037;-61
2022/10/19 08:18:06;;;;;;;17.80;9.15;;;;;;;8.27;100.00;102672.19;5051146;28;20068;-61
2022/10/19 08:20:31;;;;;;;15.35;9.02;;;;;;;8.39;100.00;102667.03;5052834;28;20475;-59
2022/10/19 08:22:57;;;;;;;16.70;8.88;;;;;;;8.49;100.00;102654.84;5052562;28;20331;-62
2022/10/19 08:25:22;;;;;;;18.45;8.02;;;;;;;8.61;100.00;102643.50;5053117;28;20033;-61
2022/10/19 08:27:47;;;;;;;13.75;8.48;;;;;;;8.68;100.00;102653.16;5051402;28;20033;-60
2022/10/19 08:30:12;;;;;;;15.23;7.57;;;;;;;8.75;100.00;102652.31;5046254;28;20400;-62
2022/10/19 08:32:38;;;;;;;16.45;8.95;;;;;;;8.75;100.00;102632.19;5032818;28;20036;-61
2022/10/19 08:35:04;;;;;;;15.98;7.30;;;;;;;8.49;100.00;102568.22;5049580;28;20069;-60
2022/10/19 08:37:29;;;;;;;12.88;6.85;;;;;;;8.85;100.00;102604.19;5041674;28;20033;-61
2022/10/19 08:39:54;;;;;;;13.88;7.00;;;;;;;9.02;100.00;102608.63;5051208;28;20053;-61
2022/10/19 08:42:25;;;;;;;9.52;5.63;;;;;;;9.28;100.00;102624.41;5051817;28;20045;-61
2022/10/19 08:45:05;;;;;;;12.60;5.10;;;;;;;9.31;100.00;102608.66;5030777;28;20064;-59
2022/10/19 08:47:55;;;;;;;10.98;4.70;;;;;;;9.61;100.00;102627.06;5035777;28;20057;-62
2022/10/19 08:50:23;;;;;;;15.25;5.07;;;;;;;9.99;100.00;102613.88;5052555;28;20041;-60
2022/10/19 08:53:00;;;;;;;12.10;4.40;;;;;;;10.39;100.00;102619.94;5052780;28;20490;-60
2022/10/19 08:55:38;;;;;;;8.13;3.25;;;;;;;10.07;100.00;102545.44;5051549;28;20449;-61
2022/10/19 08:58:35;;;;;;;7.35;3.17;;;;;;;11.02;100.00;102613.53;5048001;28;20056;-59
2022/10/19 09:01:03;;;;;;;7.68;3.67;;;;;;;11.70;100.00;102617.44;5038957;28;20138;-60
2022/10/19 09:03:30;;;;;;;5.35;2.92;;;;;;;12.20;100.00;102622.22;5052655;28;20060;-59
2022/10/19 09:06:13;;;;;;;4.10;2.17;;;;;;;12.96;100.00;102628.28;5048168;28;20033;-60
2022/10/19 09:08:39;;;;;;;7.57;2.10;;;;;;;13.75;100.00;102640.31;5034267;28;20029;-60
2022/10/19 09:11:07;;;;;;;3.50;1.75;;;;;;;14.42;100.00;102616.13;5052794;28;20486;-60
2022/10/19 09:13:40;;;;;;;5.97;1.92;;;;;;;15.27;100.00;102621.34;5034868;28;20404;-61
2022/10/19 09:16:13;;;;;;;4.22;2.08;;;;;;;15.47;100.00;102629.75;5047933;28;20393;-60
2022/10/19 09:18:39;;;;;;;8.30;1.80;;;;;;;16.04;100.00;102689.34;5036119;28;20029;-60
2022/10/19 09:21:12;;;;;;;3.63;2.08;;;;;;;16.34;100.00;102696.50;5052265;28;20044;-61
2022/10/19 09:23:38;;;;;;;3.70;1.73;;;;;;;16.68;100.00;102698.28;5047964;28;20032;-61
2022/10/19 09:26:11;;;;;;;4.43;1.85;;;;;;;15.82;100.00;102647.47;5050614;28;20094;-60
2022/10/19 09:28:42;;;;;;;7.07;1.70;;;;;;;16.16;100.00;102701.44;5048924;28;20071;-61
2022/10/19 09:31:16;;;;;;;4.43;2.08;;;;;;;16.36;100.00;102706.22;5045706;28;20022;-61
2022/10/19 09:33:43;;;;;;;5.57;2.15;;;;;;;16.49;100.00;102697.03;5030544;28;20080;-60
2022/10/19 09:36:08;;;;;;;3.83;1.70;;;;;;;16.10;100.00;102649.34;5040882;28;20031;-61
2022/10/19 09:38:34;;;;;;;7.05;1.85;;;;;;;16.87;100.00;102699.47;5048979;28;20127;-61
2022/10/19 09:41:12;;;;;;;5.43;1.85;;;;;;;16.43;100.00;102660.84;5050362;28;20028;-61
2022/10/19 09:43:38;;;;;;;5.00;2.15;;;;;;;16.00;100.00;102644.31;5045808;28;20033;-62
2022/10/19 09:46:19;;;;;;;4.25;1.50;;;;;;;16.26;100.00;102674.59;5047844;28;20031;-61
2022/10/19 09:48:46;;;;;;;;;;;;;;;15.85;100.00;102666.81;5048058;28;20066;-61
2022/10/19 09:51:13;;;;;;;5.05;2.05;;;;;;;15.86;100.00;102670.34;5064744;28;19982;-60
2022/10/19 09:53:59;;;;;;;4.60;1.75;;;;;;;15.58;100.00;102644.50;5049367;28;20056;-60
2022/10/19 09:56:26;;;;;;;7.28;1.77;;;;;;;15.46;100.00;102646.53;5047289;28;20302;-60
2022/10/19 09:58:54;;;;;;;3.38;1.25;;;;;;;15.30;100.00;102653.09;5064883;28;20110;-61
2022/10/19 10:01:34;;;;;;;7.65;1.38;;;;;;;15.23;100.00;102638.25;5050439;28;20060;-60
2022/10/19 10:04:07;;;;;;;6.38;1.30;;;;;;;14.72;100.00;102596.06;5050046;28;20480;-61
2022/10/19 10:06:34;;;;;;;3.22;1.17;;;;;;;14.59;100.00;102615.81;5049312;28;20029;-61
2022/10/19 10:08:59;;;;;;;5.18;1.40;;;;;;;14.45;100.00;102607.25;5064927;28;20085;-61
2022/10/19 10:11:38;;;;;;;6.55;1.70;;;;;;;14.54;100.00;102613.25;5048203;28;20041;-61
2022/10/19 10:14:22;;;;;;;3.55;1.27;;;;;;;13.98;100.00;102540.19;5049564;28;20041;-62
2022/10/19 10:16:47;;;;;;;5.78;1.50;;;;;;;14.16;100.00;102588.38;5064641;28;20030;-61
2022/10/19 10:19:15;;;;;;;7.38;1.42;;;;;;;13.98;100.00;102539.34;5047776;28;20432;-61
2022/10/19 10:21:53;;;;;;;7.43;2.10;;;;;;;13.87;100.00;102584.53;5048008;28;20106;-60
2022/10/19 10:24:21;;;;;;;7.45;1.33;;;;;;;13.79;100.00;102535.28;5049132;28;20037;-60
2022/10/19 10:26:52;;;;;;;5.03;1.08;;;;;;;14.44;100.00;102594.94;5049412;28;20032;-61
2022/10/19 10:29:28;;;;;;;3.30;0.90;;;;;;;14.88;100.00;102578.94;5049538;28;20480;-60
2022/10/19 10:32:03;;;;;;;3.55;1.13;;;;;;;15.53;100.00;102544.66;5049236;28;20028;-61
2022/10/19 10:34:35;;;;;;;3.10;0.90;;;;;;;16.64;100.00;102604.41;5049294;28;20025;-66
2022/10/19 10:37:02;;;;;;;4.25;1.15;;;;;;;17.31;100.00;102603.19;5048050;28;20029;-61
2022/10/19 10:39:28;;;;;;;6.20;1.30;;;;;;;18.00;100.00;102599.13;5047715;28;20040;-59
2022/10/19 10:41:54;;;;;;;4.25;1.63;;;;;;;18.36;100.00;102595.09;5047946;28;20080;-61
2022/10/19 10:44:22;;;;;;;5.75;1.27;;;;;;;18.33;100.00;102589.03;5064483;28;20048;-59
2022/10/19 10:46:56;;;;;;;4.85;1.30;;;;;;;17.29;100.00;102557.16;5064427;28;20365;-61
2022/10/19 10:49:34;;;;;;;7.03;1.70;;;;;;;17.25;100.00;102583.94;5064489;28;20091;-60
2022/10/19 10:52:04;;;;;;;3.13;1.15;;;;;;;17.27;100.00;102582.06;5047687;28;20392;-61
2022/10/19 10:54:30;;;;;;;4.68;1.45;;;;;;;17.25;100.00;102541.34;5047653;28;20396;-60
2022/10/19 10:57:00;;;;;;;3.17;1.30;;;;;;;17.44;100.00;102521.16;5050308;28;20021;-60
2022/10/19 10:59:38;;;;;;;3.03;1.42;;;;;;;17.57;100.00;102530.47;5052595;28;20044;-61
2022/10/19 11:02:14;;;;;;;7.10;1.83;;;;;;;17.93;100.00;102597.56;5052556;28;20454;-63
2022/10/19 11:04:45;;;;;;;4.07;1.45;;;;;;;18.37;100.00;102526.66;5052900;28;20029;-60
2022/10/19 11:07:19;;;;;;;3.50;1.23;;;;;;;18.16;100.00;102519.47;5052585;28;20211;-61
2022/10/19 11:09:52;;;;;;;4.80;1.90;;;;;;;19.26;100.00;102594.31;5034723;28;20037;-60
2022/10/19 11:12:23;;;;;;;3.10;1.50;;;;;;;18.81;100.00;102580.97;5034786;28;20025;-59
2022/10/19 11:14:55;;;;;;;5.75;1.67;;;;;;;18.81;100.00;102530.28;5067959;28;20385;-62